Main page
METAR-TAF:

METAR-TAF

Airports :

Kuwait International Airport

Kuwait City, Kuwait

latitude: 29-13N, longitude: 047-59E, elevation: 55 m

Current weather observation

The report was made 33 minutes ago, at 04:00 UTC
Wind 4 kt from the South
Temperature 4°C
Humidity 93%
Pressure 1022 hPa
Visibility 10 km or more
no clouds below 1500 m and no cumulonimbus

METAR: OKBK 240400Z 19004KT CAVOK 04/03 Q1022 NOSIG

Time: 07:33 (04:33 UTC)

Forecast

The report was made 5 hours and 48 minutes ago, at 22:45 UTC
Forecast valid from 24 at 00 UTC to 25 at 06 UTC
Wind 8 kt from the South
Visibility: 6000 m
Temporary
from 24 at 00 UTC to 24 at 06 UTC
Wind 3 kt from variable directions
Visibility: 4000 m
mist
Becoming
from 24 at 12 UTC to 24 at 14 UTC
Wind 8 kt from the South/Southeast with gusts up to 18 kt

TAF: OKBK 232245Z 2400/2506 19008KT 6000 NSC TEMPO 2400/2406 VRB03KT 4000 BR BECMG 2412/2414 15008G18KT

Weather observations and forecasts of more than 4000 airports (METAR and TAF reports).

The available stations are represented by yellow and red dots on the map.

Hover mouse over dot to see the name of the station.

Then click to see weather observations and forecasts.

To change the map : click on the green buttons with a black cross to zoom in, on the green button with a dash to zoom out, or on the green arrows for adjacent maps.


METAR-TAF: